createdAt,value
2018-12-27T00:01:01.665Z,-2.85
2018-12-27T00:03:30.413Z,-2.85
2018-12-27T00:05:59.185Z,-2.77
2018-12-27T00:08:27.948Z,-2.57
2018-12-27T00:10:56.842Z,-2.65
2018-12-27T00:13:25.833Z,-2.61
2018-12-27T00:15:54.550Z,-2.55
2018-12-27T00:18:23.305Z,-2.48
2018-12-27T00:20:52.122Z,-2.51
2018-12-27T00:23:20.866Z,-2.39
2018-12-27T00:28:44.675Z,-2.39
2018-12-27T00:31:13.676Z,-2.50
2018-12-27T00:33:42.766Z,-2.47
2018-12-27T00:36:11.726Z,-2.43
2018-12-27T00:38:40.708Z,-2.39
2018-12-27T00:41:09.742Z,-2.37
2018-12-27T00:43:38.756Z,-2.37
2018-12-27T00:46:07.761Z,-2.34
2018-12-27T00:48:36.795Z,-2.32
2018-12-27T00:51:05.828Z,-2.25
2018-12-27T00:53:34.827Z,-2.34
2018-12-27T00:56:03.857Z,-2.23
2018-12-27T00:58:32.828Z,-2.19
2018-12-27T01:01:01.809Z,-2.15
2018-12-27T01:03:30.835Z,-2.06
2018-12-27T01:05:59.886Z,-1.95
2018-12-27T01:08:28.862Z,-1.97
2018-12-27T01:10:57.897Z,-1.99
2018-12-27T01:13:26.984Z,-1.99
2018-12-27T01:15:55.992Z,-1.93
2018-12-27T01:18:25.015Z,-1.85
2018-12-27T01:20:53.979Z,-1.77
2018-12-27T01:23:23.010Z,-1.77
2018-12-27T01:25:51.998Z,-1.78
2018-12-27T01:28:21.021Z,-1.75
2018-12-27T01:30:50.003Z,-1.75
2018-12-27T01:33:19.119Z,-1.76
2018-12-27T01:35:48.160Z,-1.55
2018-12-27T01:38:17.184Z,-1.55
2018-12-27T01:40:46.150Z,-1.58
2018-12-27T01:43:15.186Z,-1.56
2018-12-27T01:45:44.209Z,-1.55
2018-12-27T01:48:13.169Z,-1.51
2018-12-27T01:50:42.196Z,-1.45
2018-12-27T01:53:11.160Z,-1.47
2018-12-27T01:55:40.186Z,-1.41
2018-12-27T01:58:09.150Z,-1.40
2018-12-27T02:00:38.204Z,-1.42
2018-12-27T02:03:07.236Z,-1.45
2018-12-27T02:05:36.206Z,-1.45
2018-12-27T02:08:05.236Z,-1.39
2018-12-27T02:10:34.199Z,-1.42
2018-12-27T02:13:22.426Z,-1.50
2018-12-27T02:15:51.456Z,-1.43
2018-12-27T02:18:39.682Z,-1.43
2018-12-27T02:21:08.650Z,-1.32
2018-12-27T02:23:37.687Z,-1.19
2018-12-27T02:26:06.663Z,-1.19
2018-12-27T02:28:35.672Z,-1.19
2018-12-27T02:31:04.698Z,-1.27
2018-12-27T02:33:35.550Z,-1.23
2018-12-27T02:36:04.424Z,-1.25
2018-12-27T02:38:33.459Z,-1.29
2018-12-27T02:41:02.476Z,-1.25
2018-12-27T02:43:31.515Z,-1.24
2018-12-27T02:46:00.557Z,-1.18
2018-12-27T02:48:29.590Z,-1.19
2018-12-27T02:50:58.562Z,-1.25
2018-12-27T02:53:27.598Z,-1.20
2018-12-27T02:55:56.627Z,-1.20
2018-12-27T02:58:25.972Z,-1.16
2018-12-27T03:00:54.998Z,-1.19
2018-12-27T03:03:24.000Z,-1.16
2018-12-27T03:05:52.984Z,-1.17
2018-12-27T03:08:21.958Z,-1.17
2018-12-27T03:10:50.976Z,-1.20
2018-12-27T03:13:19.972Z,-1.18
2018-12-27T03:15:49.001Z,-1.15
2018-12-27T03:18:17.969Z,-1.17
2018-12-27T03:20:46.989Z,-1.13
2018-12-27T03:23:15.976Z,-1.09
2018-12-27T03:25:45.117Z,-1.05
2018-12-27T03:28:14.085Z,-1.05
2018-12-27T03:30:43.197Z,-1.05
2018-12-27T03:33:12.187Z,-1.11
2018-12-27T03:35:41.113Z,-1.11
2018-12-27T03:38:10.124Z,-1.22
2018-12-27T03:40:39.087Z,-1.25
2018-12-27T03:43:08.130Z,-1.26
2018-12-27T03:45:37.100Z,-1.28
2018-12-27T03:48:06.123Z,-1.20
2018-12-27T03:50:35.149Z,-1.19
2018-12-27T03:53:04.113Z,-1.23
2018-12-27T03:55:33.174Z,-1.32
2018-12-27T03:58:02.145Z,-1.30
2018-12-27T04:00:31.107Z,-1.31
2018-12-27T04:03:00.133Z,-1.27
2018-12-27T04:05:29.139Z,-1.33
2018-12-27T04:07:58.103Z,-1.38
2018-12-27T04:10:27.133Z,-1.38
2018-12-27T04:12:56.100Z,-1.35
2018-12-27T04:15:24.929Z,-1.35
2018-12-27T04:17:53.748Z,-1.36
2018-12-27T04:20:22.550Z,-1.40
2018-12-27T04:22:51.358Z,-1.35
2018-12-27T04:25:20.221Z,-1.36
2018-12-27T04:27:49.002Z,-1.38
2018-12-27T04:30:17.710Z,-1.40
2018-12-27T04:33:26.328Z,-1.34
2018-12-27T04:41:44.716Z,-1.12
2018-12-27T04:47:14.654Z,-1.18
2018-12-27T04:49:43.424Z,-1.17
2018-12-27T04:52:12.140Z,-1.15
2018-12-27T04:54:40.928Z,-1.14
2018-12-27T04:57:09.789Z,-1.15
2018-12-27T05:05:28.316Z,-1.24
2018-12-27T05:07:57.120Z,-1.34
2018-12-27T05:13:13.417Z,-1.32
2018-12-27T05:18:43.267Z,-1.35
2018-12-27T05:21:24.009Z,-1.38
2018-12-27T05:26:43.801Z,-1.38
2018-12-27T05:29:12.688Z,-1.50
2018-12-27T05:34:26.097Z,-1.53
2018-12-27T05:36:50.916Z,-1.61
2018-12-27T05:39:19.732Z,-1.61
2018-12-27T05:42:28.344Z,-1.71
2018-12-27T05:44:57.063Z,-1.63
2018-12-27T05:47:25.797Z,-1.70
2018-12-27T05:49:54.590Z,-1.74
2018-12-27T05:52:23.380Z,-1.77
2018-12-27T05:54:52.099Z,-1.75
2018-12-27T05:57:20.817Z,-1.76
2018-12-27T05:59:49.607Z,-1.86
2018-12-27T06:02:18.317Z,-1.87
2018-12-27T06:04:47.106Z,-1.91
2018-12-27T06:07:15.820Z,-1.98
2018-12-27T06:09:44.719Z,-2.02
2018-12-27T06:13:05.519Z,-2.01
2018-12-27T06:15:24.050Z,-1.93
2018-12-27T06:18:12.009Z,-2.12
2018-12-27T06:20:40.955Z,-2.18
2018-12-27T06:23:09.747Z,-2.04
2018-12-27T06:25:38.526Z,-1.98
2018-12-27T06:28:07.330Z,-1.97
2018-12-27T06:30:36.148Z,-2.01
2018-12-27T06:33:04.939Z,-2.00
2018-12-27T06:35:52.706Z,-2.11
2018-12-27T06:38:34.378Z,-2.13
2018-12-27T06:41:03.161Z,-2.08
2018-12-27T06:43:32.046Z,-2.07
2018-12-27T06:46:00.806Z,-2.27
2018-12-27T06:48:48.900Z,-2.19
2018-12-27T06:51:17.655Z,-2.12
2018-12-27T06:54:05.776Z,-2.21
2018-12-27T06:56:34.568Z,-2.14
2018-12-27T06:59:03.348Z,-2.16
2018-12-27T07:01:51.231Z,-2.16
2018-12-27T07:04:09.857Z,-2.09
2018-12-27T07:06:38.644Z,-2.05
2018-12-27T07:09:47.319Z,-1.96
2018-12-27T07:12:16.171Z,-1.84
2018-12-27T07:14:44.978Z,-1.84
2018-12-27T07:17:13.693Z,-1.84
2018-12-27T07:19:42.485Z,-1.71
2018-12-27T07:22:11.281Z,-1.63
2018-12-27T07:24:40.076Z,-1.58
2018-12-27T07:27:08.915Z,-1.53
2018-12-27T07:29:37.667Z,-1.47
2018-12-27T07:32:06.486Z,-1.47
2018-12-27T07:34:35.496Z,-1.18
2018-12-27T07:37:04.232Z,-1.19
2018-12-27T07:39:33.026Z,-1.11
2018-12-27T07:42:01.804Z,-1.09
2018-12-27T07:44:30.844Z,-1.21
2018-12-27T07:47:00.026Z,-1.23
2018-12-27T07:49:28.934Z,-1.18
2018-12-27T07:51:57.926Z,-1.29
2018-12-27T07:54:26.742Z,-1.40
2018-12-27T07:56:55.635Z,-1.26
2018-12-27T07:59:24.520Z,-1.11
2018-12-27T08:01:53.383Z,-1.20
2018-12-27T08:04:22.103Z,-1.13
2018-12-27T08:06:50.894Z,-1.06
2018-12-27T08:09:19.645Z,-0.84
2018-12-27T08:11:48.370Z,-0.71
2018-12-27T08:14:17.161Z,-0.54
2018-12-27T08:16:45.878Z,-0.64
2018-12-27T08:19:14.677Z,-0.50
2018-12-27T08:21:43.460Z,-0.44
2018-12-27T08:27:20.396Z,-0.71
2018-12-27T08:29:49.110Z,-0.61
2018-12-27T08:34:57.025Z,-0.64
2018-12-27T08:37:44.815Z,-0.52
2018-12-27T08:40:13.619Z,-0.49
2018-12-27T08:42:42.344Z,-0.29
2018-12-27T08:45:11.156Z,-0.13
2018-12-27T08:47:42.351Z,0.01
2018-12-27T08:50:11.136Z,0.03
2018-12-27T08:52:40.125Z,0.01
2018-12-27T08:55:23.626Z,0.07
2018-12-27T08:57:39.426Z,0.07
2018-12-27T09:00:48.238Z,0.01
2018-12-27T09:03:17.060Z,0.19
2018-12-27T09:05:48.128Z,0.39
2018-12-27T09:08:16.922Z,0.28
2018-12-27T09:10:45.679Z,0.31
2018-12-27T09:13:14.485Z,0.00
2018-12-27T09:15:45.156Z,0.07
2018-12-27T09:21:03.075Z,-0.02
2018-12-27T09:26:40.078Z,0.25
2018-12-27T09:29:08.851Z,0.40
2018-12-27T09:31:39.278Z,0.72
2018-12-27T09:34:08.288Z,0.96
2018-12-27T09:39:31.822Z,1.12
2018-12-27T09:42:00.600Z,1.21
2018-12-27T09:44:32.164Z,1.41
2018-12-27T09:47:12.844Z,1.50
2018-12-27T09:49:31.536Z,1.54
2018-12-27T09:52:02.145Z,1.75
2018-12-27T09:54:30.856Z,1.33
2018-12-27T09:57:02.910Z,1.18
2018-12-27T09:59:31.891Z,1.41
2018-12-27T10:02:14.943Z,1.79
2018-12-27T10:04:31.512Z,2.29
2018-12-27T10:07:00.254Z,2.12
2018-12-27T10:09:41.188Z,2.83
2018-12-27T10:11:59.837Z,2.41
2018-12-27T10:14:28.508Z,3.27
2018-12-27T10:16:57.300Z,3.82
2018-12-27T10:19:40.747Z,3.17
2018-12-27T10:21:56.703Z,3.20
2018-12-27T10:27:38.850Z,2.54
2018-12-27T10:33:20.166Z,3.84
2018-12-27T10:35:48.854Z,4.99
2018-12-27T10:38:17.725Z,4.16
2018-12-27T10:44:21.378Z,4.17
2018-12-27T10:46:50.080Z,4.33
2018-12-27T10:49:58.766Z,4.66
2018-12-27T10:52:27.452Z,5.37
2018-12-27T11:00:32.900Z,5.88
2018-12-27T11:03:01.676Z,5.38
2018-12-27T11:08:19.594Z,5.30
2018-12-27T11:13:22.684Z,6.47
2018-12-27T11:15:51.499Z,5.45
2018-12-27T11:19:00.133Z,5.20
2018-12-27T11:21:28.881Z,5.67
2018-12-27T11:23:57.699Z,5.90
2018-12-27T11:26:26.563Z,5.94
2018-12-27T11:29:14.703Z,6.05
2018-12-27T11:31:43.595Z,5.73
2018-12-27T11:34:31.635Z,5.58
2018-12-27T11:37:00.393Z,5.94
2018-12-27T11:39:29.207Z,6.05
2018-12-27T11:41:57.964Z,5.94
2018-12-27T11:44:26.782Z,6.27
2018-12-27T11:46:55.514Z,6.52
2018-12-27T11:49:24.321Z,6.73
2018-12-27T11:51:53.097Z,6.24
2018-12-27T11:54:21.876Z,5.75
2018-12-27T11:56:55.810Z,6.54
2018-12-27T11:59:24.643Z,6.63
2018-12-27T12:01:56.197Z,7.53
2018-12-27T12:04:24.880Z,7.22
2018-12-27T12:06:53.652Z,7.28
2018-12-27T12:09:22.371Z,7.42
2018-12-27T12:12:05.548Z,8.12
2018-12-27T12:14:22.093Z,8.32
2018-12-27T12:16:53.918Z,8.21
2018-12-27T12:19:22.652Z,7.58
2018-12-27T12:21:51.419Z,7.37
2018-12-27T12:24:20.197Z,7.19
2018-12-27T12:26:48.916Z,7.26
2018-12-27T12:29:57.659Z,6.62
2018-12-27T12:32:26.461Z,6.28
2018-12-27T12:34:55.192Z,6.64
2018-12-27T12:37:23.974Z,6.39
2018-12-27T12:39:52.876Z,7.21
2018-12-27T12:42:32.687Z,6.86
2018-12-27T12:44:52.156Z,6.80
2018-12-27T12:47:20.910Z,7.27
2018-12-27T12:49:49.700Z,7.18
2018-12-27T12:52:18.431Z,7.31
2018-12-27T12:54:47.218Z,6.65
2018-12-27T12:57:16.000Z,6.54
2018-12-27T12:59:44.773Z,6.95
2018-12-27T13:02:13.515Z,6.64
2018-12-27T13:07:36.899Z,5.58
2018-12-27T13:10:45.522Z,6.22
2018-12-27T13:13:14.410Z,6.36
2018-12-27T13:15:43.134Z,5.99
2018-12-27T13:18:11.967Z,6.06
2018-12-27T13:20:40.689Z,6.18
2018-12-27T13:23:09.495Z,5.73
2018-12-27T13:25:38.234Z,5.83
2018-12-27T13:28:06.937Z,5.72
2018-12-27T13:30:35.927Z,5.85
2018-12-27T13:33:04.716Z,5.83
2018-12-27T13:35:33.491Z,5.93
2018-12-27T13:38:02.246Z,6.04
2018-12-27T13:40:31.028Z,6.09
2018-12-27T13:42:59.808Z,5.64
2018-12-27T13:45:28.598Z,5.68
2018-12-27T13:47:57.345Z,5.42
2018-12-27T13:50:26.136Z,5.22
2018-12-27T13:53:02.294Z,5.09
2018-12-27T13:55:31.038Z,4.86
2018-12-27T13:57:59.821Z,4.74
2018-12-27T14:00:28.536Z,4.85
2018-12-27T14:02:57.306Z,4.57
2018-12-27T14:05:26.037Z,4.38
2018-12-27T14:07:54.910Z,5.03
2018-12-27T14:10:23.787Z,4.69
2018-12-27T14:12:52.713Z,4.39
2018-12-27T14:15:40.821Z,4.14
2018-12-27T14:18:12.052Z,4.07
2018-12-27T14:20:40.785Z,3.71
2018-12-27T14:23:28.926Z,3.31
2018-12-27T14:25:57.640Z,3.51
2018-12-27T14:28:26.404Z,3.35
2018-12-27T14:30:55.196Z,3.29
2018-12-27T14:33:24.080Z,3.29
2018-12-27T14:35:52.910Z,3.41
2018-12-27T14:38:21.646Z,3.15
2018-12-27T14:40:50.652Z,3.11
2018-12-27T14:43:19.454Z,2.69
2018-12-27T14:45:48.201Z,2.75
2018-12-27T14:48:17.019Z,2.68
2018-12-27T14:50:45.916Z,2.72
2018-12-27T14:55:48.594Z,2.84
2018-12-27T14:58:17.403Z,2.55
2018-12-27T15:00:46.185Z,2.42
2018-12-27T15:03:15.402Z,2.37
2018-12-27T15:05:44.194Z,2.25
2018-12-27T15:11:02.237Z,2.18
2018-12-27T15:13:31.119Z,2.25
2018-12-27T15:15:59.881Z,2.07
2018-12-27T15:18:28.593Z,2.02
2018-12-27T15:20:57.487Z,1.74
2018-12-27T15:23:26.380Z,1.71
2018-12-27T15:25:55.256Z,1.73
2018-12-27T15:28:24.053Z,1.62
2018-12-27T15:30:52.869Z,1.82
2018-12-27T15:33:24.128Z,1.60
2018-12-27T15:36:12.198Z,1.55
2018-12-27T15:38:40.988Z,1.53
2018-12-27T15:41:10.223Z,1.49
2018-12-27T15:43:38.924Z,1.38
2018-12-27T15:46:07.731Z,1.23
2018-12-27T15:48:36.466Z,1.10
2018-12-27T15:51:05.273Z,1.25
2018-12-27T15:53:34.023Z,1.12
2018-12-27T15:57:10.302Z,0.93
2018-12-27T15:58:54.071Z,0.94
2018-12-27T16:01:22.822Z,1.00
2018-12-27T16:03:51.648Z,0.71
2018-12-27T16:06:20.427Z,0.66
2018-12-27T16:08:49.327Z,0.86
2018-12-27T16:13:52.157Z,0.94
2018-12-27T16:16:20.933Z,0.94
2018-12-27T16:19:01.515Z,0.88
2018-12-27T16:24:34.384Z,0.64
2018-12-27T16:27:05.141Z,0.66
2018-12-27T16:29:34.024Z,0.60
2018-12-27T16:34:41.706Z,0.53
2018-12-27T16:37:10.445Z,0.45
2018-12-27T16:40:19.066Z,0.28
2018-12-27T16:42:47.993Z,0.51
2018-12-27T16:45:16.789Z,0.36
2018-12-27T16:50:39.999Z,0.19
2018-12-27T16:53:08.806Z,-0.12
2018-12-27T16:58:26.691Z,0.11
2018-12-27T17:00:55.517Z,0.06
2018-12-27T17:05:59.767Z,0.15
2018-12-27T17:08:28.625Z,0.15
2018-12-27T17:10:57.363Z,0.02
2018-12-27T17:16:34.956Z,-0.04
2018-12-27T17:19:02.805Z,0.02
2018-12-27T17:21:21.547Z,-0.11
2018-12-27T17:26:37.939Z,-0.10
2018-12-27T17:29:11.781Z,-0.24
2018-12-27T17:31:40.539Z,-0.19
2018-12-27T17:34:09.300Z,-0.22
2018-12-27T17:36:38.292Z,-0.37
2018-12-27T17:39:46.866Z,-0.29
2018-12-27T17:42:15.672Z,-0.29
2018-12-27T17:44:44.485Z,-0.32
2018-12-27T17:47:13.213Z,-0.35
2018-12-27T17:49:42.017Z,-0.51
2018-12-27T17:52:30.032Z,-0.36
2018-12-27T17:54:41.415Z,-0.47
2018-12-27T17:57:10.173Z,-0.52
2018-12-27T17:59:50.632Z,-0.61
2018-12-27T18:02:09.468Z,-0.67
2018-12-27T18:04:38.414Z,-0.58
2018-12-27T18:07:07.218Z,-0.52
2018-12-27T18:12:27.821Z,-0.52
2018-12-27T18:15:36.586Z,-0.72
2018-12-27T18:18:17.984Z,-0.59
2018-12-27T18:21:26.710Z,-0.69
2018-12-27T18:23:57.875Z,-0.61
2018-12-27T18:26:26.723Z,-0.79
2018-12-27T18:28:55.844Z,-0.67
2018-12-27T18:31:24.673Z,-0.76
2018-12-27T18:34:12.890Z,-0.80
2018-12-27T18:36:41.821Z,-0.76
2018-12-27T18:39:11.001Z,-0.70
2018-12-27T18:41:41.621Z,-0.68
2018-12-27T18:44:10.374Z,-0.70
2018-12-27T18:46:39.317Z,-0.76
2018-12-27T18:49:08.170Z,-0.65
2018-12-27T18:51:36.952Z,-0.60
2018-12-27T18:54:24.989Z,-0.59
2018-12-27T18:57:05.575Z,-0.58
2018-12-27T19:04:57.569Z,-0.99
2018-12-27T19:10:15.483Z,-0.81
2018-12-27T19:13:22.988Z,-0.82
2018-12-27T19:15:51.799Z,-0.86
2018-12-27T19:19:00.612Z,-0.95
2018-12-27T19:27:19.197Z,-0.95
2018-12-27T19:29:47.972Z,-1.05
2018-12-27T19:32:35.878Z,-1.02
2018-12-27T19:37:42.797Z,-1.41
2018-12-27T19:40:11.548Z,-1.17
2018-12-27T19:42:40.268Z,-1.16
2018-12-27T19:45:09.071Z,-1.14
2018-12-27T19:47:52.527Z,-1.13
2018-12-27T19:50:11.058Z,-1.02
2018-12-27T19:52:40.151Z,-0.99
2018-12-27T19:55:42.722Z,-1.01
2018-12-27T19:57:58.700Z,-1.11
2018-12-27T20:00:27.473Z,-1.17
2018-12-27T20:02:56.485Z,-1.13
2018-12-27T20:05:25.345Z,-1.19
2018-12-27T20:08:34.297Z,-1.17
2018-12-27T20:11:03.211Z,-1.22
2018-12-27T20:13:32.114Z,-1.38
2018-12-27T20:18:35.317Z,-1.43
2018-12-27T20:23:43.563Z,-1.43
2018-12-27T20:26:12.326Z,-1.44
2018-12-27T20:28:41.147Z,-1.45
2018-12-27T20:33:59.963Z,-1.40
2018-12-27T20:36:29.729Z,-1.45
2018-12-27T20:38:58.533Z,-1.54
2018-12-27T20:41:49.595Z,-1.50
2018-12-27T20:44:18.418Z,-1.48
2018-12-27T20:49:35.350Z,-1.75
2018-12-27T20:52:44.673Z,-1.67
2018-12-27T20:55:13.474Z,-1.66
2018-12-27T21:00:21.408Z,-1.76
2018-12-27T21:02:50.399Z,-1.87
2018-12-27T21:05:19.142Z,-1.76
2018-12-27T21:11:09.780Z,-1.77
2018-12-27T21:13:53.079Z,-1.71
2018-12-27T21:16:10.002Z,-1.80
2018-12-27T21:18:38.728Z,-1.70
2018-12-27T21:21:47.634Z,-1.69
2018-12-27T21:24:16.383Z,-1.98
2018-12-27T21:26:45.345Z,-1.91
2018-12-27T21:29:54.031Z,-2.01
2018-12-27T21:32:24.989Z,-2.10
2018-12-27T21:34:53.726Z,-2.11
2018-12-27T21:37:22.564Z,-2.10
2018-12-27T21:39:53.083Z,-2.09
2018-12-27T21:42:21.974Z,-2.07
2018-12-27T21:47:58.865Z,-2.05
2018-12-27T21:50:27.797Z,-2.08
2018-12-27T21:52:56.661Z,-1.97
2018-12-27T21:55:25.412Z,-2.00
2018-12-27T21:57:54.210Z,-2.15
2018-12-27T22:00:23.098Z,-2.15
2018-12-27T22:02:51.891Z,-2.11
2018-12-27T22:05:20.646Z,-2.21
2018-12-27T22:08:03.882Z,-2.17
2018-12-27T22:10:20.132Z,-2.16
2018-12-27T22:12:49.042Z,-2.24
2018-12-27T22:15:17.874Z,-2.20
2018-12-27T22:17:46.714Z,-2.19
2018-12-27T22:20:17.384Z,-2.13
2018-12-27T22:22:48.531Z,-2.17
2018-12-27T22:25:17.491Z,-2.20
2018-12-27T22:30:35.796Z,-2.07
2018-12-27T22:33:05.888Z,-2.12
2018-12-27T22:35:34.663Z,-2.10
2018-12-27T22:38:03.447Z,-2.16
2018-12-27T22:40:32.256Z,-2.28
2018-12-27T22:43:01.147Z,-2.23
2018-12-27T22:45:29.917Z,-2.21
2018-12-27T22:48:18.033Z,-2.17
2018-12-27T22:53:45.244Z,-2.50
2018-12-27T22:56:33.274Z,-2.31
2018-12-27T22:59:02.206Z,-2.27
2018-12-27T23:01:50.380Z,-2.24
2018-12-27T23:04:19.096Z,-2.22
2018-12-27T23:06:47.885Z,-2.26
2018-12-27T23:09:16.756Z,-2.21
2018-12-27T23:11:45.493Z,-2.25
2018-12-27T23:16:50.065Z,-2.35
2018-12-27T23:19:18.789Z,-2.31
2018-12-27T23:24:36.681Z,-2.31
2018-12-27T23:27:05.417Z,-2.35
2018-12-27T23:29:34.136Z,-2.40
2018-12-27T23:34:38.025Z,-2.39
2018-12-27T23:39:56.369Z,-2.36
2018-12-27T23:42:27.901Z,-2.48
2018-12-27T23:44:56.680Z,-2.42
2018-12-27T23:50:14.576Z,-2.40
2018-12-27T23:52:43.499Z,-2.34
2018-12-27T23:55:12.298Z,-2.31
2018-12-27T23:57:41.103Z,-2.35
